Time,TemperatureF,DewpointF,PressureIn,WindDirection,WindDirectionDegrees,WindSpeedMPH,WindSpeedGustMPH,Humidity,HourlyPrecipIn,Conditions,Clouds,dailyrainin,SoftwareType,DateUTC
2013-12-21 00:03:00,27.8,26.0,29.92,NNW,348,0.0,-999.0,93,-99.99,,,0.14,weatherlink.com 1.10,2013-12-21 05:03:00,
2013-12-21 00:18:00,27.9,26.0,29.91,NNW,348,0.0,-999.0,93,-99.99,,,0.14,weatherlink.com 1.10,2013-12-21 05:18:00,
2013-12-21 00:33:00,28.2,27.0,29.91,NNW,348,0.0,-999.0,93,-99.99,,,0.14,weatherlink.com 1.10,2013-12-21 05:33:00,
2013-12-21 00:48:00,28.5,27.0,29.90,North,354,3.0,-999.0,93,-99.99,,,0.00,weatherlink.com 1.10,2013-12-21 05:48:00,
2013-12-21 01:03:00,29.0,28.0,29.89,SE,136,5.0,-999.0,94,-99.99,,,0.00,weatherlink.com 1.10,2013-12-21 06:03:00,
2013-12-21 01:18:00,30.3,29.0,29.88,SE,140,2.0,-999.0,94,-99.99,,,0.00,weatherlink.com 1.10,2013-12-21 06:18:00,
2013-12-21 01:33:00,31.1,30.0,29.88,SE,140,1.0,-999.0,94,-99.99,,,0.00,weatherlink.com 1.10,2013-12-21 06:33:00,
2013-12-21 01:48:00,30.3,29.0,29.89,SSW,209,3.0,-999.0,93,-99.99,,,0.00,weatherlink.com 1.10,2013-12-21 06:48:00,
2013-12-21 02:03:00,30.2,29.0,29.88,SSW,209,0.0,-999.0,94,-99.99,,,0.00,weatherlink.com 1.10,2013-12-21 07:03:00,
2013-12-21 02:18:00,30.4,29.0,29.88,SSW,209,0.0,-999.0,94,-99.99,,,0.00,weatherlink.com 1.10,2013-12-21 07:18:00,
2013-12-21 02:33:00,30.9,29.0,29.89,SSW,208,0.0,-999.0,94,-99.99,,,0.00,weatherlink.com 1.10,2013-12-21 07:33:00,
2013-12-21 02:48:00,31.4,30.0,29.88,SSW,208,0.0,-999.0,94,-99.99,,,0.00,weatherlink.com 1.10,2013-12-21 07:48:00,
2013-12-21 03:03:00,31.6,30.0,29.87,SSW,208,0.0,-999.0,94,-99.99,,,0.00,weatherlink.com 1.10,2013-12-21 08:03:00,
2013-12-21 03:18:00,32.1,31.0,29.89,SE,131,1.0,-999.0,94,-99.99,,,0.00,weatherlink.com 1.10,2013-12-21 08:18:00,
2013-12-21 03:33:00,32.2,31.0,29.87,NE,53,2.0,-999.0,94,-99.99,,,0.00,weatherlink.com 1.10,2013-12-21 08:33:00,
2013-12-21 03:48:00,32.4,31.0,29.86,ENE,70,4.0,-999.0,95,-99.99,,,0.00,weatherlink.com 1.10,2013-12-21 08:48:00,
2013-12-21 04:03:00,32.8,32.0,29.84,ENE,78,0.0,-999.0,95,-99.99,,,0.00,weatherlink.com 1.10,2013-12-21 09:03:00,
2013-12-21 04:18:00,34.2,33.0,29.86,West,269,4.0,-999.0,95,-99.99,,,0.00,weatherlink.com 1.10,2013-12-21 09:18:00,
2013-12-21 04:33:00,34.5,33.0,29.87,SSW,201,2.0,-999.0,95,-99.99,,,0.00,weatherlink.com 1.10,2013-12-21 09:33:00,
2013-12-21 04:48:00,35.7,34.0,29.86,SSW,201,0.0,-999.0,95,-99.99,,,0.00,weatherlink.com 1.10,2013-12-21 09:48:00,
2013-12-21 05:03:00,35.9,35.0,29.86,ESE,121,1.0,-999.0,95,-99.99,,,0.00,weatherlink.com 1.10,2013-12-21 10:03:00,
2013-12-21 05:18:00,36.9,36.0,29.86,SE,134,2.0,-999.0,95,-99.99,,,0.00,weatherlink.com 1.10,2013-12-21 10:18:00,
2013-12-21 05:33:00,40.7,40.0,29.85,SSE,147,1.0,-999.0,96,-99.99,,,0.00,weatherlink.com 1.10,2013-12-21 10:33:00,
2013-12-21 05:48:00,41.5,40.0,29.85,West,268,0.0,-999.0,95,-99.99,,,0.00,weatherlink.com 1.10,2013-12-21 10:48:00,
2013-12-21 06:03:00,41.0,39.0,29.86,North,4,0.0,-999.0,92,-99.99,,,0.03,weatherlink.com 1.10,2013-12-21 11:03:00,
2013-12-21 06:18:00,42.0,40.0,29.85,West,266,0.0,-999.0,92,-99.99,,,0.03,weatherlink.com 1.10,2013-12-21 11:18:00,
2013-12-21 06:33:00,41.2,39.0,29.84,North,8,3.0,-999.0,92,-99.99,,,0.03,weatherlink.com 1.10,2013-12-21 11:33:00,
2013-12-21 06:48:00,41.5,40.0,29.84,North,8,2.0,-999.0,93,-99.99,,,0.03,weatherlink.com 1.10,2013-12-21 11:48:00,
2013-12-21 07:03:00,40.7,39.0,29.85,North,8,0.0,-999.0,92,-99.99,,,0.03,weatherlink.com 1.10,2013-12-21 12:03:00,
2013-12-21 07:18:00,40.1,38.0,29.85,South,180,2.0,-999.0,93,-99.99,,,0.03,weatherlink.com 1.10,2013-12-21 12:18:00,
2013-12-21 07:33:00,43.7,42.0,29.84,South,174,11.0,-999.0,94,-99.99,,,0.03,weatherlink.com 1.10,2013-12-21 12:33:00,
2013-12-21 07:48:00,47.4,43.0,29.85,SSW,197,9.0,-999.0,86,-99.99,,,0.04,weatherlink.com 1.10,2013-12-21 12:48:00,
2013-12-21 08:03:00,47.4,43.0,29.84,SSW,203,10.0,-999.0,85,-99.99,,,0.04,weatherlink.com 1.10,2013-12-21 13:03:00,
2013-12-21 08:18:00,47.5,43.0,29.84,SSW,202,0.0,-999.0,84,-99.99,,,0.04,weatherlink.com 1.10,2013-12-21 13:18:00,
2013-12-21 08:34:00,47.3,43.0,29.84,WSW,239,4.0,-999.0,84,-99.99,,,0.04,weatherlink.com 1.10,2013-12-21 13:34:00,
2013-12-21 08:49:00,46.1,42.0,29.85,SW,223,0.0,-999.0,84,-99.99,,,0.04,weatherlink.com 1.10,2013-12-21 13:49:00,
2013-12-21 09:04:00,45.3,41.0,29.87,WSW,244,7.0,-999.0,86,-99.99,,,0.04,weatherlink.com 1.10,2013-12-21 14:04:00,
2013-12-21 09:19:00,46.1,42.0,29.86,SSW,205,9.0,-999.0,85,-99.99,,,0.04,weatherlink.com 1.10,2013-12-21 14:19:00,
2013-12-21 09:34:00,46.6,41.0,29.86,SW,226,9.0,-999.0,82,-99.99,,,0.04,weatherlink.com 1.10,2013-12-21 14:34:00,
2013-12-21 09:49:00,46.2,41.0,29.86,SW,219,4.0,-999.0,82,-99.99,,,0.04,weatherlink.com 1.10,2013-12-21 14:49:00,
2013-12-21 10:04:00,45.9,40.0,29.87,SSW,203,6.0,-999.0,81,-99.99,,,0.04,weatherlink.com 1.10,2013-12-21 15:04:00,
2013-12-21 10:19:00,46.0,41.0,29.87,SW,225,16.0,-999.0,81,-99.99,,,0.04,weatherlink.com 1.10,2013-12-21 15:19:00,
2013-12-21 10:34:00,45.7,41.0,29.87,South,181,15.0,-999.0,84,-99.99,,,0.04,weatherlink.com 1.10,2013-12-21 15:34:00,
2013-12-21 10:49:00,46.8,42.0,29.85,SSW,196,12.0,-999.0,83,-99.99,,,0.04,weatherlink.com 1.10,2013-12-21 15:49:00,
2013-12-21 11:04:00,48.7,45.0,29.82,SSE,157,13.0,-999.0,86,-99.99,,,0.04,weatherlink.com 1.10,2013-12-21 16:04:00,
2013-12-21 11:19:00,50.1,46.0,29.81,SSW,204,7.0,-999.0,84,-99.99,,,0.04,weatherlink.com 1.10,2013-12-21 16:19:00,
2013-12-21 11:34:00,50.2,46.0,29.80,South,176,13.0,-999.0,86,-99.99,,,0.04,weatherlink.com 1.10,2013-12-21 16:34:00,
2013-12-21 11:49:00,51.0,46.0,29.80,South,181,12.0,-999.0,84,-99.99,,,0.04,weatherlink.com 1.10,2013-12-21 16:49:00,
2013-12-21 12:04:00,50.0,45.0,29.81,SW,229,4.0,-999.0,84,-99.99,,,0.04,weatherlink.com 1.10,2013-12-21 17:04:00,
2013-12-21 12:19:00,48.9,45.0,29.82,SW,224,6.0,-999.0,86,-99.99,,,0.04,weatherlink.com 1.10,2013-12-21 17:19:00,
2013-12-21 12:34:00,48.5,45.0,29.82,SW,224,11.0,-999.0,86,-99.99,,,0.04,weatherlink.com 1.10,2013-12-21 17:34:00,
2013-12-21 12:49:00,48.7,44.0,29.82,SW,221,17.0,-999.0,85,-99.99,,,0.04,weatherlink.com 1.10,2013-12-21 17:49:00,
2013-12-21 13:04:00,48.6,45.0,29.82,SSW,212,10.0,-999.0,86,-99.99,,,0.04,weatherlink.com 1.10,2013-12-21 18:04:00,
2013-12-21 13:19:00,48.8,46.0,29.82,SSW,211,6.0,-999.0,89,-99.99,,,0.04,weatherlink.com 1.10,2013-12-21 18:19:00,
2013-12-21 13:34:00,48.5,46.0,29.81,SW,219,6.0,-999.0,89,-99.99,,,0.04,weatherlink.com 1.10,2013-12-21 18:34:00,
2013-12-21 13:49:00,48.5,45.0,29.82,SW,221,4.0,-999.0,87,-99.99,,,0.04,weatherlink.com 1.10,2013-12-21 18:49:00,
2013-12-21 14:04:00,48.1,44.0,29.83,SW,230,0.0,-999.0,86,-99.99,,,0.04,weatherlink.com 1.10,2013-12-21 19:04:00,
2013-12-21 14:19:00,47.4,44.0,29.84,SW,228,0.0,-999.0,88,-99.99,,,0.05,weatherlink.com 1.10,2013-12-21 19:19:00,
2013-12-21 14:34:00,46.5,44.0,29.83,SW,228,1.0,-999.0,90,-99.99,,,0.06,weatherlink.com 1.10,2013-12-21 19:34:00,
2013-12-21 14:49:00,47.3,45.0,29.84,SW,228,2.0,-999.0,92,-99.99,,,0.08,weatherlink.com 1.10,2013-12-21 19:49:00,
2013-12-21 15:04:00,46.5,44.0,29.84,West,259,0.0,-999.0,91,-99.99,,,0.09,weatherlink.com 1.10,2013-12-21 20:04:00,
2013-12-21 15:19:00,42.9,40.0,29.85,NW,306,6.0,-999.0,89,-99.99,,,0.10,weatherlink.com 1.10,2013-12-21 20:19:00,
2013-12-21 15:34:00,37.3,35.0,29.86,North,0,5.0,-999.0,92,-99.99,,,0.10,weatherlink.com 1.10,2013-12-21 20:34:00,
2013-12-21 15:49:00,35.9,34.0,29.87,WNW,288,0.0,-999.0,93,-99.99,,,0.10,weatherlink.com 1.10,2013-12-21 20:49:00,
2013-12-21 16:04:00,34.3,33.0,29.89,NW,304,3.0,-999.0,93,-99.99,,,0.11,weatherlink.com 1.10,2013-12-21 21:04:00,
2013-12-21 16:19:00,33.6,32.0,29.89,WNW,290,5.0,-999.0,94,-99.99,,,0.12,weatherlink.com 1.10,2013-12-21 21:19:00,
2013-12-21 16:34:00,33.1,32.0,29.89,WSW,257,4.0,-999.0,94,-99.99,,,0.13,weatherlink.com 1.10,2013-12-21 21:34:00,
2013-12-21 16:49:00,32.9,31.0,29.90,West,272,3.0,-999.0,94,-99.99,,,0.14,weatherlink.com 1.10,2013-12-21 21:49:00,
2013-12-21 17:04:00,32.7,31.0,29.90,NNW,332,4.0,-999.0,94,-99.99,,,0.15,weatherlink.com 1.10,2013-12-21 22:04:00,
2013-12-21 17:19:00,32.3,31.0,29.90,NNW,337,3.0,-999.0,94,-99.99,,,0.16,weatherlink.com 1.10,2013-12-21 22:19:00,
2013-12-21 17:34:00,32.3,31.0,29.90,WNW,301,4.0,-999.0,94,-99.99,,,0.16,weatherlink.com 1.10,2013-12-21 22:34:00,
2013-12-21 17:49:00,31.9,30.0,29.91,NW,304,5.0,-999.0,94,-99.99,,,0.16,weatherlink.com 1.10,2013-12-21 22:49:00,
2013-12-21 18:04:00,31.6,30.0,29.91,NNW,347,4.0,-999.0,94,-99.99,,,0.16,weatherlink.com 1.10,2013-12-21 23:04:00,
2013-12-21 18:19:00,31.9,31.0,29.92,NNW,340,6.0,-999.0,95,-99.99,,,0.16,weatherlink.com 1.10,2013-12-21 23:19:00,
2013-12-21 18:34:00,31.5,30.0,29.93,NNW,342,4.0,-999.0,94,-99.99,,,0.16,weatherlink.com 1.10,2013-12-21 23:34:00,
2013-12-21 18:49:00,31.0,30.0,29.93,NNW,338,4.0,-999.0,94,-99.99,,,0.16,weatherlink.com 1.10,2013-12-21 23:49:00,
2013-12-21 19:04:00,30.7,29.0,29.95,NW,320,5.0,-999.0,94,-99.99,,,0.16,weatherlink.com 1.10,2013-12-22 00:04:00,
2013-12-21 19:19:00,30.5,29.0,29.95,NNW,328,7.0,-999.0,94,-99.99,,,0.16,weatherlink.com 1.10,2013-12-22 00:19:00,
2013-12-21 19:34:00,30.2,29.0,29.95,North,357,5.0,-999.0,94,-99.99,,,0.16,weatherlink.com 1.10,2013-12-22 00:34:00,
2013-12-21 19:49:00,29.9,28.0,29.95,North,0,9.0,-999.0,94,-99.99,,,0.16,weatherlink.com 1.10,2013-12-22 00:49:00,
2013-12-21 20:04:00,29.8,28.0,29.95,North,352,6.0,-999.0,94,-99.99,,,0.16,weatherlink.com 1.10,2013-12-22 01:04:00,
2013-12-21 20:19:00,29.5,28.0,29.96,NNW,336,5.0,-999.0,94,-99.99,,,0.16,weatherlink.com 1.10,2013-12-22 01:19:00,
2013-12-21 20:34:00,29.2,28.0,29.96,North,0,4.0,-999.0,94,-99.99,,,0.16,weatherlink.com 1.10,2013-12-22 01:34:00,
2013-12-21 20:49:00,29.0,28.0,29.96,NW,311,2.0,-999.0,94,-99.99,,,0.16,weatherlink.com 1.10,2013-12-22 01:49:00,
2013-12-21 21:04:00,28.4,27.0,29.96,NNW,328,1.0,-999.0,94,-99.99,,,0.16,weatherlink.com 1.10,2013-12-22 02:04:00,
2013-12-21 21:19:00,28.3,27.0,29.96,NW,307,5.0,-999.0,94,-99.99,,,0.16,weatherlink.com 1.10,2013-12-22 02:19:00,
2013-12-21 21:34:00,28.2,27.0,29.96,NNW,333,6.0,-999.0,94,-99.99,,,0.16,weatherlink.com 1.10,2013-12-22 02:34:00,
2013-12-21 21:49:00,28.1,27.0,29.95,NNW,342,4.0,-999.0,94,-99.99,,,0.16,weatherlink.com 1.10,2013-12-22 02:49:00,
2013-12-21 22:04:00,28.1,27.0,29.95,NNW,333,6.0,-999.0,94,-99.99,,,0.16,weatherlink.com 1.10,2013-12-22 03:04:00,
2013-12-21 22:19:00,28.1,27.0,29.96,NNW,336,3.0,-999.0,94,-99.99,,,0.16,weatherlink.com 1.10,2013-12-22 03:19:00,
2013-12-21 22:34:00,28.1,27.0,29.95,North,353,5.0,-999.0,94,-99.99,,,0.16,weatherlink.com 1.10,2013-12-22 03:34:00,
2013-12-21 22:49:00,28.0,27.0,29.95,NW,305,4.0,-999.0,94,-99.99,,,0.16,weatherlink.com 1.10,2013-12-22 03:49:00,
2013-12-21 23:04:00,27.9,26.0,29.95,NW,312,3.0,-999.0,94,-99.99,,,0.16,weatherlink.com 1.10,2013-12-22 04:04:00,
2013-12-21 23:19:00,27.9,26.0,29.96,NNW,346,5.0,-999.0,94,-99.99,,,0.16,weatherlink.com 1.10,2013-12-22 04:19:00,
2013-12-21 23:34:00,27.9,26.0,29.96,NNW,345,5.0,-999.0,94,-99.99,,,0.16,weatherlink.com 1.10,2013-12-22 04:34:00,
2013-12-21 23:49:00,27.9,26.0,29.95,NW,314,6.0,-999.0,94,-99.99,,,0.16,weatherlink.com 1.10,2013-12-22 04:49:00,